Terminal Aerodrome Forecast
Issued by NWS

Home | Current Version | Previous Version | Text Only | Print | Product List | Glossary On
Versions: 1 2 3 4 5 6 7 8 9 10 11 12 13 14 15 16 17 18 19
826
FTUS43 KJKL 010726 AAA
TAFSME
TAF AMD
KSME 010726Z 0107/0206 VRB03KT P6SM VCTS BKN040CB OVC150
      TEMPO 0107/0108 1SM +SHRA BR BKN004 OVC010
     FM010800 VRB03KT P6SM SCT040 BKN130
     FM011500 25008KT P6SM VCTS BKN040CB
     FM020000 VRB03KT P6SM VCTS BKN040CB=

USA.gov is the U.S. government's official web portal to all federal, state and local government web resources and services.